Time;durP1;ratioP1;P1;durP2;ratioP2;P2;SDS_P1;SDS_P2;PMS_P1;PMS_P2;Temp;Humidity;BMP_temperature;BMP_pressure;BME280_temperature;BME280_humidity;BME280_pressure;Samples;Min_cycle;Max_cycle;Signal;HPM_P1;HPM_P2
2022/02/14 00:00:06;;;;;;;;;;;;;;;2.51;62.71;98275.57;1649689;86;26223;-82
2022/02/14 00:02:34;;;;;;;;;;;;;;;2.50;62.96;98273.47;1644361;85;20504;-81
2022/02/14 00:05:03;;;;;;;;;;;;;;;2.55;63.25;98275.02;1645143;86;20289;-81
2022/02/14 00:07:29;;;;;;;;;;;;;;;2.57;63.50;98274.03;1650200;86;24881;-81
2022/02/14 00:09:55;;;;;;;;;;;;;;;2.57;63.75;98265.00;1647725;86;22647;-82
2022/02/14 00:12:21;;;;;;;;;;;;;;;2.61;64.01;98264.44;1647584;86;21090;-82
2022/02/14 00:14:47;;;;;;;;;;;;;;;2.61;64.25;98265.28;1624382;86;24546;-82
2022/02/14 00:17:13;;;;;;;;;;;;;;;2.59;64.45;98262.36;1643306;86;20595;-82
2022/02/14 00:19:40;;;;;;;;;;;;;;;2.60;64.68;98264.05;1643221;86;24976;-82
2022/02/14 00:22:06;;;;;;;;;;;;;;;2.62;64.91;98267.42;1641824;86;21900;-82
2022/02/14 00:24:32;;;;;;;;;;;;;;;2.61;65.13;98266.58;1647373;86;21083;-81
2022/02/14 00:26:58;;;;;;;;;;;;;;;2.61;65.35;98253.66;1647218;86;24507;-82
2022/02/14 00:29:24;;;;;;;;;;;;;;;2.58;65.53;98248.60;1642565;85;20251;-81
2022/02/14 00:31:50;;;;;;;;;;;;;;;2.57;65.70;98239.16;1648646;85;24978;-82
2022/02/14 00:34:17;;;;;;;;;;;;;;;2.55;65.90;98246.16;1654688;85;20242;-80
2022/02/14 00:36:43;;;;;;;;;;;;;;;2.56;66.12;98240.09;1658495;85;26055;-81
2022/02/14 00:39:10;;;;;;;;;;;;;;;2.60;66.35;98234.34;1656713;85;24472;-81
2022/02/14 00:41:36;;;;;;;;;;;;;;;2.60;66.59;98237.77;1658170;85;20792;-81
2022/02/14 00:44:02;;;;;;;;;;;;;;;2.62;66.81;98240.30;1656503;85;24816;-81
2022/02/14 00:46:28;;;;;;;;;;;;;;;2.63;67.06;98235.05;1629726;86;21937;-81
2022/02/14 00:48:54;;;;;;;;;;;;;;;2.61;67.27;98234.73;1656254;86;26037;-81
2022/02/14 00:51:20;;;;;;;;;;;;;;;2.62;67.51;98233.36;1657853;85;24402;-81
2022/02/14 00:53:47;;;;;;;;;;;;;;;2.66;67.74;98242.69;1658720;85;20239;-82
2022/02/14 00:56:13;;;;;;;;;;;;;;;2.66;67.95;98237.52;1659142;85;24838;-82
2022/02/14 00:58:39;;;;;;;;;;;;;;;2.69;68.20;98239.12;1657768;85;21939;-82
2022/02/14 01:01:05;;;;;;;;;;;;;;;2.71;68.42;98239.91;1658210;85;26029;-83
2022/02/14 01:03:31;;;;;;;;;;;;;;;2.72;68.60;98241.59;1656274;85;24423;-83
2022/02/14 01:05:57;;;;;;;;;;;;;;;2.72;68.81;98239.85;1657078;85;20219;-83
2022/02/14 01:08:23;;;;;;;;;;;;;;;2.76;69.01;98240.55;1659794;85;24804;-86
2022/02/14 01:10:49;;;;;;;;;;;;;;;2.75;69.20;98236.28;1657944;85;22146;-86
2022/02/14 01:13:15;;;;;;;;;;;;;;;2.71;69.33;98238.16;1658412;85;26112;-86
2022/02/14 01:15:41;;;;;;;;;;;;;;;2.69;69.48;98237.83;1658524;85;24497;-86
2022/02/14 01:18:08;;;;;;;;;;;;;;;2.66;69.62;98241.39;1655707;86;20505;-86
2022/02/14 01:20:34;;;;;;;;;;;;;;;2.63;69.74;98233.75;1658405;85;24838;-86
2022/02/14 01:23:00;;;;;;;;;;;;;;;2.66;69.94;98230.22;1652550;86;22165;-86
2022/02/14 01:25:26;;;;;;;;;;;;;;;2.67;70.09;98235.77;1659754;85;26077;-86
2022/02/14 01:27:52;;;;;;;;;;;;;;;2.67;70.28;98218.53;1660303;85;24491;-86
2022/02/14 01:30:18;;;;;;;;;;;;;;;2.69;70.49;98222.32;1658631;85;20246;-88
2022/02/14 01:32:44;;;;;;;;;;;;;;;2.66;70.65;98211.69;1660138;85;24834;-88
2022/02/14 01:35:10;;;;;;;;;;;;;;;2.64;70.83;98218.64;1675836;84;21996;-88
2022/02/14 01:37:39;;;;;;;;;;;;;;;2.66;71.04;98215.56;1671370;84;26067;-88
2022/02/14 01:40:07;;;;;;;;;;;;;;;2.65;71.19;98211.73;1672709;85;25139;-87
2022/02/14 01:42:33;;;;;;;;;;;;;;;2.66;71.38;98205.22;1668640;84;20342;-88
2022/02/14 01:44:59;;;;;;;;;;;;;;;2.66;71.54;98205.67;1663237;85;25184;-87
2022/02/14 01:47:26;;;;;;;;;;;;;;;2.66;71.70;98197.92;1669513;85;22057;-88
2022/02/14 01:49:52;;;;;;;;;;;;;;;2.67;71.87;98199.61;1674844;85;26023;-87
2022/02/14 01:52:19;;;;;;;;;;;;;;;2.70;72.07;98197.73;1682320;83;24317;-87
2022/02/14 01:54:47;;;;;;;;;;;;;;;2.70;72.21;98200.31;1679699;85;20279;-87
2022/02/14 01:57:13;;;;;;;;;;;;;;;2.68;72.37;98189.64;1668908;85;24748;-87
2022/02/14 01:59:40;;;;;;;;;;;;;;;2.65;72.49;98189.78;1671520;85;21999;-87
2022/02/14 02:02:08;;;;;;;;;;;;;;;2.65;72.64;98189.33;1675187;85;25481;-87
2022/02/14 02:04:35;;;;;;;;;;;;;;;2.64;72.79;98186.35;1677731;85;24635;-87
2022/02/14 02:07:01;;;;;;;;;;;;;;;2.63;72.91;98190.28;1675753;85;20506;-87
2022/02/14 02:09:27;;;;;;;;;;;;;;;2.63;73.06;98182.09;1676558;84;24892;-85
2022/02/14 02:14:38;;;;;;;;;;;;;;;2.61;73.29;98178.75;1673266;85;26850;-85
2022/02/14 02:17:04;;;;;;;;;;;;;;;2.64;73.48;98176.47;1677011;83;20389;-85
2022/02/14 02:19:34;;;;;;;;;;;;;;;2.65;73.63;98176.41;1677395;84;20220;-82
2022/02/14 02:22:00;;;;;;;;;;;;;;;2.61;73.74;98167.13;1675639;85;24933;-90
2022/02/14 02:24:30;;;;;;;;;;;;;;;2.59;73.84;98174.53;1678395;85;22035;-90
2022/02/14 02:27:04;;;;;;;;;;;;;;;2.57;73.97;98167.29;1671712;85;25527;-90
2022/02/14 02:29:31;;;;;;;;;;;;;;;2.57;74.13;98161.67;1672584;85;25288;-89
2022/02/14 02:32:02;;;;;;;;;;;;;;;2.58;74.31;98163.36;1678214;85;20236;-89
2022/02/14 02:34:28;;;;;;;;;;;;;;;2.55;74.41;98157.05;1677426;84;24768;-89
2022/02/14 02:36:57;;;;;;;;;;;;;;;2.55;74.56;98157.49;1675628;85;22147;-91
2022/02/14 02:39:29;;;;;;;;;;;;;;;2.52;74.68;98156.70;1674460;85;25990;-88
2022/02/14 02:41:58;;;;;;;;;;;;;;;2.51;74.81;98158.89;1672603;85;24437;-89
2022/02/14 02:44:37;;;;;;;;;;;;;;;2.52;74.95;98145.53;1672955;85;20200;-88
2022/02/14 02:47:06;;;;;;;;;;;;;;;2.53;75.11;98144.64;1674400;85;24612;-88
2022/02/14 02:49:32;;;;;;;;;;;;;;;2.47;75.22;98144.89;1676006;85;22235;-87
2022/02/14 02:51:59;;;;;;;;;;;;;;;2.45;75.35;98146.72;1675282;85;26009;-89
2022/02/14 02:54:26;;;;;;;;;;;;;;;2.47;75.53;98141.02;1672643;85;24439;-88
2022/02/14 02:56:53;;;;;;;;;;;;;;;2.50;75.68;98147.36;1673897;85;20474;-89
2022/02/14 02:59:23;;;;;;;;;;;;;;;2.49;75.83;98145.23;1677573;85;24822;-89
2022/02/14 03:01:49;;;;;;;;;;;;;;;2.49;75.99;98139.22;1674042;85;22128;-85
2022/02/14 03:04:16;;;;;;;;;;;;;;;2.45;76.11;98141.55;1672322;85;26095;-85
2022/02/14 03:06:42;;;;;;;;;;;;;;;2.42;76.20;98150.70;1671385;83;24717;-84
2022/02/14 03:09:09;;;;;;;;;;;;;;;2.44;76.34;98150.20;1672956;85;20365;-84
2022/02/14 03:11:35;;;;;;;;;;;;;;;2.40;76.46;98147.37;1672382;85;24770;-84
2022/02/14 03:14:02;;;;;;;;;;;;;;;2.41;76.62;98149.02;1682351;83;21840;-84
2022/02/14 03:16:27;;;;;;;;;;;;;;;2.38;76.75;98143.55;1673745;85;26057;-84
2022/02/14 03:18:54;;;;;;;;;;;;;;;2.38;76.89;98142.70;1670277;85;20267;-84
2022/02/14 03:21:20;;;;;;;;;;;;;;;2.41;77.04;98139.98;1675146;84;20249;-84
2022/02/14 03:23:47;;;;;;;;;;;;;;;2.44;77.24;98142.45;1669309;85;25563;-84
2022/02/14 03:26:16;;;;;;;;;;;;;;;2.45;77.42;98144.14;1677800;85;22115;-84
2022/02/14 03:28:42;;;;;;;;;;;;;;;2.45;77.53;98146.72;1675290;85;26796;-84
2022/02/14 03:31:08;;;;;;;;;;;;;;;2.44;77.64;98139.87;1679130;85;24416;-84
2022/02/14 03:33:34;;;;;;;;;;;;;;;2.42;77.76;98133.92;1675374;85;20244;-86
2022/02/14 03:36:01;;;;;;;;;;;;;;;2.41;77.88;98132.23;1668839;85;24839;-86
2022/02/14 03:38:27;;;;;;;;;;;;;;;2.46;78.03;98125.13;1673041;85;22022;-86
2022/02/14 03:40:53;;;;;;;;;;;;;;;2.43;78.13;98136.89;1671295;85;26659;-86
2022/02/14 03:43:19;;;;;;;;;;;;;;;2.42;78.27;98130.05;1675585;85;24433;-86
2022/02/14 03:45:46;;;;;;;;;;;;;;;2.38;78.35;98137.09;1673590;84;20594;-86
2022/02/14 03:48:12;;;;;;;;;;;;;;;2.39;78.47;98134.91;1676515;85;24938;-86
2022/02/14 03:50:38;;;;;;;;;;;;;;;2.38;78.59;98138.83;1676402;85;21950;-86
2022/02/14 03:53:05;;;;;;;;;;;;;;;2.38;78.72;98132.38;1671557;85;26085;-87
2022/02/14 03:55:31;;;;;;;;;;;;;;;2.39;78.85;98132.32;1672985;85;24437;-86
2022/02/14 03:57:58;;;;;;;;;;;;;;;2.40;78.99;98135.75;1678226;85;20283;-86
2022/02/14 04:00:24;;;;;;;;;;;;;;;2.42;79.13;98136.50;1679075;85;24737;-87
2022/02/14 04:02:51;;;;;;;;;;;;;;;2.44;79.28;98134.70;1669762;85;22022;-86
2022/02/14 04:05:18;;;;;;;;;;;;;;;2.42;79.37;98130.05;1667810;85;25907;-86
2022/02/14 04:07:44;;;;;;;;;;;;;;;2.42;79.48;98124.88;1675926;85;24433;-87
2022/02/14 04:10:12;;;;;;;;;;;;;;;2.41;79.58;98124.48;1671049;85;20224;-87
2022/02/14 04:12:38;;;;;;;;;;;;;;;2.39;79.66;98140.06;1672455;85;24740;-87
2022/02/14 04:15:06;;;;;;;;;;;;;;;2.38;79.76;98133.67;1669272;85;21930;-87
2022/02/14 04:17:32;;;;;;;;;;;;;;;2.37;79.87;98133.27;1683559;84;25885;-87
2022/02/14 04:19:58;;;;;;;;;;;;;;;2.38;79.99;98131.09;1674092;85;24588;-87
2022/02/14 04:22:26;;;;;;;;;;;;;;;2.35;80.07;98135.06;1677327;85;20188;-86
2022/02/14 04:24:52;;;;;;;;;;;;;;;2.33;80.18;98123.53;1675834;85;24859;-87
2022/02/14 04:27:18;;;;;;;;;;;;;;;2.34;80.29;98123.93;1670742;85;22009;-86
2022/02/14 04:29:44;;;;;;;;;;;;;;;2.33;80.41;98126.13;1680455;85;26160;-86
2022/02/14 04:32:11;;;;;;;;;;;;;;;2.32;80.52;98124.88;1679609;84;24434;-86
2022/02/14 04:34:37;;;;;;;;;;;;;;;2.31;80.61;98129.66;1670953;85;20324;-86
2022/02/14 04:37:03;;;;;;;;;;;;;;;2.29;80.72;98115.98;1657187;85;24784;-87
2022/02/14 04:39:30;;;;;;;;;;;;;;;2.30;80.84;98121.52;1659298;85;22589;-87
2022/02/14 04:41:56;;;;;;;;;;;;;;;2.31;80.98;98118.03;1656391;85;26067;-87
2022/02/14 04:44:22;;;;;;;;;;;;;;;2.31;81.13;98109.84;1659702;85;24447;-87
2022/02/14 04:46:48;;;;;;;;;;;;;;;2.31;81.26;98116.74;1660987;85;20222;-86
2022/02/14 04:49:15;;;;;;;;;;;;;;;2.31;81.40;98107.26;1657562;85;24829;-86
2022/02/14 04:51:41;;;;;;;;;;;;;;;2.34;81.52;98110.18;1659668;85;21974;-87
2022/02/14 04:54:08;;;;;;;;;;;;;;;2.32;81.67;98107.66;1661015;85;26075;-86
2022/02/14 04:56:34;;;;;;;;;;;;;;;2.30;81.76;98098.28;1655837;85;24448;-87
2022/02/14 04:59:00;;;;;;;;;;;;;;;2.28;81.84;98106.11;1658855;85;20226;-82
2022/02/14 05:01:28;;;;;;;;;;;;;;;2.27;81.98;98105.72;1658691;85;24715;-85
2022/02/14 05:03:54;;;;;;;;;;;;;;;2.28;82.10;98107.41;1656837;85;21965;-85
2022/02/14 05:06:21;;;;;;;;;;;;;;;2.27;82.21;98103.58;1658433;85;21038;-86
2022/02/14 05:08:47;;;;;;;;;;;;;;;2.26;82.33;98109.20;1656879;85;24850;-85
2022/02/14 05:11:14;;;;;;;;;;;;;;;2.26;82.45;98107.06;1656632;85;20230;-85
2022/02/14 05:13:41;;;;;;;;;;;;;;;2.22;82.55;98106.36;1658449;85;24821;-85
2022/02/14 05:16:08;;;;;;;;;;;;;;;2.20;82.64;98113.77;1657773;85;22007;-82
2022/02/14 05:18:35;;;;;;;;;;;;;;;2.20;82.78;98107.31;1658678;85;26067;-82
2022/02/14 05:21:01;;;;;;;;;;;;;;;2.20;82.92;98112.48;1655329;86;24562;-85
2022/02/14 05:23:33;;;;;;;;;;;;;;;2.21;83.04;98107.26;1658819;86;20317;-85
2022/02/14 05:26:01;;;;;;;;;;;;;;;2.25;83.21;98109.25;1657629;86;25447;-85
2022/02/14 05:28:27;;;;;;;;;;;;;;;2.26;83.40;98109.20;1660698;86;21854;-84
2022/02/14 05:30:53;;;;;;;;;;;;;;;2.26;83.56;98116.94;1659024;85;26038;-84
2022/02/14 05:33:19;;;;;;;;;;;;;;;2.29;83.71;98121.16;1654492;86;24501;-83
2022/02/14 05:35:46;;;;;;;;;;;;;;;2.30;83.88;98110.73;1674842;84;20229;-83
2022/02/14 05:38:12;;;;;;;;;;;;;;;2.30;84.02;98118.93;1686071;84;24799;-84
2022/02/14 05:40:38;;;;;;;;;;;;;;;2.31;84.16;98118.03;1684558;84;22049;-84
2022/02/14 05:43:04;;;;;;;;;;;;;;;2.28;84.24;98117.73;1686558;84;25901;-84
2022/02/14 05:45:30;;;;;;;;;;;;;;;2.30;84.38;98115.06;1689816;83;24500;-84
2022/02/14 05:47:56;;;;;;;;;;;;;;;2.32;84.50;98117.14;1685995;84;20310;-85
2022/02/14 05:50:22;;;;;;;;;;;;;;;2.32;84.64;98120.56;1659181;83;24611;-84
2022/02/14 05:52:48;;;;;;;;;;;;;;;2.35;84.80;98114.41;1682334;83;21950;-84
2022/02/14 05:55:14;;;;;;;;;;;;;;;2.35;84.89;98113.13;1684588;83;25956;-84
2022/02/14 05:57:40;;;;;;;;;;;;;;;2.35;85.00;98113.97;1685098;84;24562;-84
2022/02/14 06:00:08;;;;;;;;;;;;;;;2.35;85.10;98101.50;1684339;84;20291;-89
2022/02/14 06:02:34;;;;;;;;;;;;;;;2.34;85.19;98114.05;1690369;83;24946;-87
2022/02/14 06:05:00;;;;;;;;;;;;;;;2.37;85.35;98113.91;1687252;83;21813;-88
2022/02/14 06:07:26;;;;;;;;;;;;;;;2.40;85.46;98129.29;1684605;84;26054;-88
2022/02/14 06:09:52;;;;;;;;;;;;;;;2.40;85.59;98121.55;1690627;84;24502;-85
2022/02/14 06:12:18;;;;;;;;;;;;;;;2.39;85.68;98120.70;1685472;84;20254;-87
2022/02/14 06:14:44;;;;;;;;;;;;;;;2.40;85.78;98121.06;1688694;83;24819;-87
2022/02/14 06:17:11;;;;;;;;;;;;;;;2.41;85.86;98111.58;1690373;83;21974;-89
2022/02/14 06:19:38;;;;;;;;;;;;;;;2.40;85.94;98109.92;1686745;84;25968;-83
2022/02/14 06:22:04;;;;;;;;;;;;;;;2.37;86.02;98112.62;1687909;84;24430;-89
2022/02/14 06:24:30;;;;;;;;;;;;;;;2.39;86.12;98114.70;1689419;84;20253;-87
2022/02/14 06:26:56;;;;;;;;;;;;;;;2.37;86.21;98108.30;1690093;84;25657;-87
2022/02/14 06:29:22;;;;;;;;;;;;;;;2.35;86.27;98107.51;1690050;84;20238;-87
2022/02/14 06:31:48;;;;;;;;;;;;;;;2.37;86.37;98107.45;1686671;83;25989;-87
2022/02/14 06:34:15;;;;;;;;;;;;;;;2.40;86.50;98106.05;1690676;84;24436;-88
2022/02/14 06:36:41;;;;;;;;;;;;;;;2.41;86.63;98107.25;1674096;84;20311;-88
2022/02/14 06:39:10;;;;;;;;;;;;;;;2.44;86.73;98100.69;1677648;85;25002;-87
2022/02/14 06:41:37;;;;;;;;;;;;;;;2.47;86.84;98103.57;1674535;85;21972;-87
2022/02/14 06:44:10;;;;;;;;;;;;;;;2.48;86.95;98102.22;1674440;85;26150;-87
2022/02/14 06:46:41;;;;;;;;;;;;;;;2.48;87.04;98106.09;1677791;85;24436;-88
2022/02/14 06:49:07;;;;;;;;;;;;;;;2.51;87.12;98110.27;1674206;85;20327;-87
2022/02/14 06:51:35;;;;;;;;;;;;;;;2.52;87.20;98099.05;1673228;85;24788;-87
2022/02/14 06:54:01;;;;;;;;;;;;;;;2.55;87.31;98110.55;1679889;85;22022;-88
2022/02/14 06:56:28;;;;;;;;;;;;;;;2.59;87.43;98104.34;1670502;85;26654;-87
2022/02/14 06:58:54;;;;;;;;;;;;;;;2.60;87.51;98099.57;1675075;85;24519;-84
2022/02/14 07:01:20;;;;;;;;;;;;;;;2.65;87.60;98100.66;1677023;84;20577;-84
2022/02/14 07:03:46;;;;;;;;;;;;;;;2.68;87.69;98105.23;1681138;85;24758;-86
2022/02/14 07:06:14;;;;;;;;;;;;;;;2.73;87.82;98094.23;1679603;85;22101;-85
2022/02/14 07:08:40;;;;;;;;;;;;;;;2.77;87.91;98098.39;1680403;84;26040;-85
2022/02/14 07:11:06;;;;;;;;;;;;;;;2.84;88.01;98097.19;1677318;84;24597;-85
2022/02/14 07:13:32;;;;;;;;;;;;;;;2.88;88.10;98092.74;1674380;85;20798;-85
2022/02/14 07:15:59;;;;;;;;;;;;;;;2.91;88.15;98099.89;1678752;85;24944;-85
2022/02/14 07:18:25;;;;;;;;;;;;;;;2.93;88.20;98092.92;1675837;85;22080;-84
2022/02/14 07:20:57;;;;;;;;;;;;;;;2.98;88.26;98100.92;1677764;85;25992;-89
2022/02/14 07:23:23;;;;;;;;;;;;;;;3.03;88.31;98096.37;1675147;85;24545;-89
2022/02/14 07:25:57;;;;;;;;;;;;;;;3.08;88.38;98106.90;1669215;85;20525;-90
2022/02/14 07:28:34;;;;;;;;;;;;;;;3.12;88.42;98105.84;1664715;85;25019;-89
2022/02/14 07:31:00;;;;;;;;;;;;;;;3.15;88.46;98101.00;1671199;85;22115;-89
2022/02/14 07:33:31;;;;;;;;;;;;;;;3.19;88.50;98103.83;1627649;85;25499;-89
2022/02/14 07:36:03;;;;;;;;;;;;;;;3.21;88.54;98109.33;1659412;84;24409;-89
2022/02/14 07:38:37;;;;;;;;;;;;;;;3.24;88.52;98107.88;1688402;84;20231;-90
2022/02/14 07:41:03;;;;;;;;;;;;;;;3.25;88.52;98099.67;1686702;84;24914;-89
2022/02/14 07:43:33;;;;;;;;;;;;;;;3.29;88.54;98093.44;1687141;84;22076;-90
2022/02/14 07:46:05;;;;;;;;;;;;;;;3.33;88.56;98101.43;1687179;84;26257;-90
2022/02/14 07:48:31;;;;;;;;;;;;;;;3.38;88.60;98096.91;1685545;84;24625;-89
2022/02/14 07:51:14;;;;;;;;;;;;;;;3.44;88.62;98090.63;1685377;84;20553;-89
2022/02/14 07:53:40;;;;;;;;;;;;;;;3.48;88.64;98095.57;1690429;84;24826;-89
2022/02/14 07:56:14;;;;;;;;;;;;;;;3.51;88.64;98083.77;1688981;83;20293;-89
2022/02/14 07:58:49;;;;;;;;;;;;;;;3.57;88.65;98080.91;1687165;84;26019;-88
2022/02/14 08:04:14;;;;;;;;;;;;;;;3.66;88.68;98080.45;1688543;83;20890;-89
2022/02/14 08:06:43;;;;;;;;;;;;;;;3.71;88.66;98068.58;1687446;84;24869;-89
2022/02/14 08:09:11;;;;;;;;;;;;;;;3.77;88.64;98076.05;1690597;84;21952;-89
2022/02/14 08:11:44;;;;;;;;;;;;;;;3.77;88.59;98077.34;1687029;84;26022;-90
2022/02/14 08:14:10;;;;;;;;;;;;;;;3.81;88.55;98072.88;1685306;84;24423;-89
2022/02/14 08:16:42;;;;;;;;;;;;;;;3.86;88.53;98073.50;1689547;84;20251;-89
2022/02/14 08:19:10;;;;;;;;;;;;;;;3.89;88.48;98072.04;1687433;84;24774;-90
2022/02/14 08:21:36;;;;;;;;;;;;;;;3.95;88.46;98061.39;1686309;83;22188;-82
2022/02/14 08:24:04;;;;;;;;;;;;;;;4.01;88.44;98059.80;1682747;84;26150;-82
2022/02/14 08:26:31;;;;;;;;;;;;;;;4.03;88.39;98048.92;1690009;83;24476;-81
2022/02/14 08:28:58;;;;;;;;;;;;;;;4.09;88.36;98056.38;1685685;84;20160;-86
2022/02/14 08:31:27;;;;;;;;;;;;;;;4.11;88.29;98052.78;1684686;84;24828;-86
2022/02/14 08:33:53;;;;;;;;;;;;;;;4.18;88.27;98053.32;1687701;84;21970;-86
2022/02/14 08:36:19;;;;;;;;;;;;;;;4.20;88.18;98045.00;1685087;84;26027;-82
2022/02/14 08:38:45;;;;;;;;;;;;;;;4.23;88.08;98048.75;1705405;83;24448;-82
2022/02/14 08:41:11;;;;;;;;;;;;;;;4.29;88.04;98052.78;1671342;84;20275;-82
2022/02/14 08:43:37;;;;;;;;;;;;;;;4.39;88.05;98053.53;1693268;84;24803;-82
2022/02/14 08:46:03;;;;;;;;;;;;;;;4.47;88.08;98042.30;1684413;84;21896;-84
2022/02/14 08:48:30;;;;;;;;;;;;;;;4.51;88.03;98049.02;1675980;85;25957;-82
2022/02/14 08:50:56;;;;;;;;;;;;;;;4.58;87.96;98054.73;1685266;85;24464;-82
2022/02/14 08:53:23;;;;;;;;;;;;;;;4.66;87.92;98046.53;1683237;85;20220;-82
2022/02/14 08:55:49;;;;;;;;;;;;;;;4.70;87.87;98046.29;1679247;84;24986;-82
2022/02/14 08:58:15;;;;;;;;;;;;;;;4.74;87.80;98048.28;1683172;84;22066;-82
2022/02/14 09:00:41;;;;;;;;;;;;;;;4.84;87.81;98046.88;1680210;83;26094;-81
2022/02/14 09:03:07;;;;;;;;;;;;;;;4.91;87.79;98049.04;1680176;85;24515;-82
2022/02/14 09:05:33;;;;;;;;;;;;;;;4.96;87.73;98046.23;1680462;85;20506;-82
2022/02/14 09:07:59;;;;;;;;;;;;;;;5.01;87.60;98055.89;1688652;85;24901;-82
2022/02/14 09:10:25;;;;;;;;;;;;;;;5.03;87.51;98053.58;1680527;85;21937;-82
2022/02/14 09:12:52;;;;;;;;;;;;;;;5.09;87.37;98064.09;1685148;84;26074;-82
2022/02/14 09:15:18;;;;;;;;;;;;;;;5.15;87.25;98066.81;1682641;85;24508;-82
2022/02/14 09:17:44;;;;;;;;;;;;;;;5.21;87.18;98056.95;1681547;85;20248;-82
2022/02/14 09:20:10;;;;;;;;;;;;;;;5.31;87.14;98061.16;1681858;83;24814;-82
2022/02/14 09:22:37;;;;;;;;;;;;;;;5.40;87.07;98065.38;1685699;84;22047;-81
2022/02/14 09:25:04;;;;;;;;;;;;;;;5.47;86.96;98062.00;1679053;84;25927;-82
2022/02/14 09:27:30;;;;;;;;;;;;;;;5.53;86.88;98059.52;1686235;85;24679;-82
2022/02/14 09:29:57;;;;;;;;;;;;;;;5.61;86.82;98059.95;1685800;85;20224;-82
2022/02/14 09:32:23;;;;;;;;;;;;;;;5.70;86.67;98059.42;1684747;84;24858;-82
2022/02/14 09:34:49;;;;;;;;;;;;;;;5.76;86.49;98061.22;1680635;85;21920;-82
2022/02/14 09:37:15;;;;;;;;;;;;;;;5.81;86.23;98050.56;1683245;85;25957;-82
2022/02/14 09:39:42;;;;;;;;;;;;;;;5.84;85.95;98042.13;1681747;84;25147;-84
2022/02/14 09:42:08;;;;;;;;;;;;;;;5.94;85.81;98040.36;1683521;85;20260;-85
2022/02/14 09:44:35;;;;;;;;;;;;;;;6.01;85.64;98040.36;1689197;84;24836;-84
2022/02/14 09:47:05;;;;;;;;;;;;;;;6.06;85.43;98043.06;1678374;84;22001;-85
2022/02/14 09:49:32;;;;;;;;;;;;;;;6.09;85.19;98040.30;1678741;84;25972;-84
2022/02/14 09:51:58;;;;;;;;;;;;;;;6.14;84.96;98046.53;1685331;85;24505;-84
2022/02/14 09:54:25;;;;;;;;;;;;;;;6.18;84.67;98044.12;1679052;85;20354;-84
2022/02/14 09:56:52;;;;;;;;;;;;;;;6.17;84.32;98043.73;1680687;84;24834;-84
2022/02/14 09:59:18;;;;;;;;;;;;;;;6.22;84.15;98043.84;1686201;85;22142;-85
2022/02/14 10:01:44;;;;;;;;;;;;;;;6.31;83.99;98047.69;1682984;83;26065;-84
2022/02/14 10:04:11;;;;;;;;;;;;;;;6.42;83.76;98044.45;1681113;85;24616;-84
2022/02/14 10:06:39;;;;;;;;;;;;;;;6.48;83.48;98038.89;1687286;83;20689;-84
2022/02/14 10:09:15;;;;;;;;;;;;;;;6.53;83.20;98047.25;1679872;84;24748;-84
2022/02/14 10:11:59;;;;;;;;;;;;;;;6.55;82.89;98028.02;1684828;83;21553;-85
2022/02/14 10:14:29;;;;;;;;;;;;;;;6.59;82.56;98032.13;1683007;83;25999;-84
2022/02/14 10:17:06;;;;;;;;;;;;;;;6.68;82.25;98033.32;1683075;83;24507;-84
2022/02/14 10:19:33;;;;;;;;;;;;;;;6.71;81.87;98039.63;1677851;84;20226;-84
2022/02/14 10:21:59;;;;;;;;;;;;;;;6.75;81.54;98029.89;1682544;83;25550;-84
2022/02/14 10:24:26;;;;;;;;;;;;;;;6.81;81.31;98020.42;1685566;85;22018;-84
2022/02/14 10:26:53;;;;;;;;;;;;;;;6.86;81.07;98027.02;1677948;85;26024;-84
2022/02/14 10:29:21;;;;;;;;;;;;;;;6.89;80.81;98024.20;1681515;83;24570;-84
2022/02/14 10:31:49;;;;;;;;;;;;;;;6.97;80.55;98024.59;1683474;84;20372;-85
2022/02/14 10:34:16;;;;;;;;;;;;;;;6.99;80.23;98024.47;1699049;84;24774;-84
2022/02/14 10:36:49;;;;;;;;;;;;;;;7.00;79.85;98024.38;1658569;85;20395;-85
2022/02/14 10:39:23;;;;;;;;;;;;;;;7.03;79.58;98033.31;1670883;85;26900;-85
2022/02/14 10:41:51;;;;;;;;;;;;;;;7.09;79.36;98026.41;1665873;85;24488;-85
2022/02/14 10:47:13;;;;;;;;;;;;;;;7.20;78.65;98018.42;1672185;84;24795;-84
2022/02/14 10:49:41;;;;;;;;;;;;;;;7.24;78.19;98006.41;1697077;83;22091;-85
2022/02/14 10:52:08;;;;;;;;;;;;;;;7.27;77.72;98011.87;1703766;83;26845;-84
2022/02/14 10:54:35;;;;;;;;;;;;;;;7.32;77.39;98009.34;1660155;85;24782;-84
2022/02/14 10:57:02;;;;;;;;;;;;;;;7.40;77.12;98011.48;1657909;85;20586;-85
2022/02/14 10:59:29;;;;;;;;;;;;;;;7.47;76.89;98007.06;1694692;83;24710;-85
2022/02/14 11:01:56;;;;;;;;;;;;;;;7.51;76.52;98010.33;1693525;83;22001;-84
2022/02/14 11:04:22;;;;;;;;;;;;;;;7.54;76.15;98010.95;1660033;85;26015;-84
2022/02/14 11:06:49;;;;;;;;;;;;;;;7.59;75.73;98010.65;1685913;83;24555;-85
2022/02/14 11:09:16;;;;;;;;;;;;;;;7.60;75.40;98002.38;1691214;83;20158;-85
2022/02/14 11:11:44;;;;;;;;;;;;;;;7.63;75.00;97998.29;1689786;83;38140;-84
2022/02/14 11:14:10;;;;;;;;;;;;;;;7.68;74.67;97993.15;1688503;83;22046;-84
2022/02/14 11:16:37;;;;;;;;;;;;;;;7.72;74.37;97989.40;1696267;83;25992;-84
2022/02/14 11:19:04;;;;;;;;;;;;;;;7.74;74.08;97985.41;1685022;83;24514;-85
2022/02/14 11:21:33;;;;;;;;;;;;;;;7.78;73.74;97989.47;1682290;83;20336;-84
2022/02/14 11:24:13;;;;;;;;;;;;;;;7.81;73.39;97988.78;1691409;83;24790;-90
2022/02/14 11:26:45;;;;;;;;;;;;;;;7.86;73.14;97981.97;1690691;83;22005;-88
2022/02/14 11:29:25;;;;;;;;;;;;;;;7.96;72.85;97988.27;1701293;83;25995;-88
2022/02/14 11:31:53;;;;;;;;;;;;;;;8.05;72.51;97984.20;1695713;83;24522;-88
2022/02/14 11:34:19;;;;;;;;;;;;;;;8.06;72.19;97982.80;1699177;83;20264;-88
2022/02/14 11:36:47;;;;;;;;;;;;;;;8.08;71.91;97978.77;1696555;83;20720;-88
2022/02/14 11:39:16;;;;;;;;;;;;;;;8.05;71.53;97972.01;1704961;83;21943;-88
2022/02/14 11:41:44;;;;;;;;;;;;;;;8.01;71.16;97972.32;1706369;83;25978;-88
2022/02/14 11:44:16;;;;;;;;;;;;;;;8.05;70.86;97975.08;1663966;85;20487;-88
2022/02/14 11:46:44;;;;;;;;;;;;;;;8.14;70.60;97963.56;1660583;85;20226;-89
2022/02/14 11:49:12;;;;;;;;;;;;;;;8.11;70.26;97966.39;1702654;83;24969;-88
2022/02/14 11:51:50;;;;;;;;;;;;;;;8.14;69.99;97966.16;1685821;85;22860;-88
2022/02/14 11:54:35;;;;;;;;;;;;;;;8.16;69.59;97962.16;1666302;85;26067;-88
2022/02/14 11:57:12;;;;;;;;;;;;;;;8.22;69.31;97961.75;1685450;83;24527;-88
2022/02/14 11:59:44;;;;;;;;;;;;;;;8.23;68.98;97955.14;1660355;85;20351;-88
2022/02/14 12:02:12;;;;;;;;;;;;;;;8.29;68.74;97953.39;1702172;83;24848;-88
2022/02/14 12:04:40;;;;;;;;;;;;;;;8.32;68.46;97953.23;1685292;85;22672;-88
2022/02/14 12:07:26;;;;;;;;;;;;;;;8.36;68.17;97942.11;1702331;83;25978;-88
2022/02/14 12:10:00;;;;;;;;;;;;;;;8.43;67.98;97939.45;1704518;83;24541;-88
2022/02/14 12:12:46;;;;;;;;;;;;;;;8.42;67.70;97927.35;1705252;83;20214;-88
2022/02/14 12:20:34;;;;;;;;;;;;;;;8.55;66.78;97914.30;1634960;87;26728;-88
2022/02/14 12:23:02;;;;;;;;;;;;;;;8.52;66.45;97903.60;1638726;87;24618;-89
2022/02/14 12:25:28;;;;;;;;;;;;;;;8.58;66.20;97909.70;1624987;88;20183;-90
2022/02/14 12:27:59;;;;;;;;;;;;;;;8.58;66.02;97904.95;1624764;88;24829;-90
2022/02/14 12:30:28;;;;;;;;;;;;;;;8.65;65.88;97903.12;1623834;88;22027;-90
2022/02/14 12:33:02;;;;;;;;;;;;;;;8.68;65.65;97907.27;1662426;85;26719;-90
2022/02/14 12:35:38;;;;;;;;;;;;;;;8.70;65.50;97903.63;1671580;85;24630;-90
2022/02/14 12:38:06;;;;;;;;;;;;;;;8.68;65.24;97909.41;1676294;85;20233;-90
2022/02/14 12:40:45;;;;;;;;;;;;;;;8.67;64.92;97893.89;1666838;85;25417;-90
2022/02/14 12:43:26;;;;;;;;;;;;;;;8.64;64.67;97885.80;1672401;85;22652;-90
2022/02/14 12:46:00;;;;;;;;;;;;;;;8.59;64.41;97885.28;1672499;85;27024;-84
2022/02/14 12:48:28;;;;;;;;;;;;;;;8.57;64.16;97879.34;1675965;85;24555;-84
2022/02/14 12:50:54;;;;;;;;;;;;;;;8.52;63.87;97871.00;1674630;85;20136;-84
2022/02/14 12:53:20;;;;;;;;;;;;;;;8.49;63.66;97871.70;1662127;85;20739;-82
2022/02/14 12:55:46;;;;;;;;;;;;;;;8.55;63.59;97865.59;1663062;84;21924;-82
2022/02/14 12:58:16;;;;;;;;;;;;;;;8.60;63.53;97860.88;1667869;85;26170;-83
2022/02/14 13:00:43;;;;;;;;;;;;;;;8.60;63.37;97871.31;1672087;85;24494;-82
2022/02/14 13:03:15;;;;;;;;;;;;;;;8.56;63.17;97858.60;1668745;85;20262;-83
2022/02/14 13:05:43;;;;;;;;;;;;;;;8.54;62.98;97852.19;1673480;84;24907;-82
2022/02/14 13:08:16;;;;;;;;;;;;;;;8.64;62.80;97856.27;1667017;85;22060;-83
2022/02/14 13:10:43;;;;;;;;;;;;;;;8.73;62.75;97856.44;1670064;85;26653;-84
2022/02/14 13:13:10;;;;;;;;;;;;;;;8.75;62.64;97851.95;1672748;85;25205;-82